createdAt,value
2022-10-14T00:02:26.400Z,96526.31
2022-10-14T00:04:55.884Z,96511.88
2022-10-14T00:07:23.992Z,96513.16
2022-10-14T00:09:52.116Z,96519.72
2022-10-14T00:12:20.029Z,96518.34
2022-10-14T00:14:48.085Z,96500.59
2022-10-14T00:17:15.942Z,96496.38
2022-10-14T00:19:43.874Z,96492.44
2022-10-14T00:22:13.913Z,96503.81
2022-10-14T00:24:41.801Z,96500.06
2022-10-14T00:27:09.792Z,96500.69
2022-10-14T00:29:37.699Z,96499.88
2022-10-14T00:32:05.921Z,96498.97
2022-10-14T00:34:33.956Z,96503.09
2022-10-14T00:37:01.828Z,96504.78
2022-10-14T00:39:31.121Z,96502.53
2022-10-14T00:41:59.015Z,96501.72
2022-10-14T00:45:03.132Z,96503.69
2022-10-14T00:47:31.143Z,96502.13
2022-10-14T00:50:00.942Z,96497.63
2022-10-14T00:52:29.025Z,96493.47
2022-10-14T00:55:01.458Z,96494.22
2022-10-14T00:57:31.193Z,96487.78
2022-10-14T01:00:04.303Z,96469.50
2022-10-14T01:02:32.212Z,96465.69
2022-10-14T01:05:00.811Z,96475.84
2022-10-14T01:07:38.497Z,96474.88
2022-10-14T01:10:12.606Z,96472.41
2022-10-14T01:12:51.228Z,96463.66
2022-10-14T01:15:25.249Z,96454.91
2022-10-14T01:18:01.789Z,96469.28
2022-10-14T01:21:02.397Z,96464.34
2022-10-14T01:24:05.220Z,96471.47
2022-10-14T01:26:58.246Z,96479.69
2022-10-14T01:29:53.149Z,96471.06
2022-10-14T01:32:25.394Z,96471.94
2022-10-14T01:34:56.593Z,96478.00
2022-10-14T01:37:27.896Z,96455.88
2022-10-14T01:39:58.596Z,96459.28
2022-10-14T01:42:29.598Z,96469.09
2022-10-14T01:45:01.810Z,96469.97
2022-10-14T01:47:32.555Z,96469.69
2022-10-14T01:50:05.125Z,96454.63
2022-10-14T01:52:36.729Z,96452.66
2022-10-14T01:55:07.870Z,96455.13
2022-10-14T01:57:37.584Z,96455.91
2022-10-14T02:00:06.659Z,96448.38
2022-10-14T02:02:38.468Z,96439.75
2022-10-14T02:05:09.286Z,96448.75
2022-10-14T02:07:40.171Z,96436.44
2022-10-14T02:10:15.323Z,96440.56
2022-10-14T02:12:49.611Z,96440.81
2022-10-14T02:15:22.407Z,96439.47
2022-10-14T02:17:55.252Z,96432.56
2022-10-14T02:20:27.412Z,96435.19
2022-10-14T02:22:59.954Z,96410.56
2022-10-14T02:25:30.895Z,96442.88
2022-10-14T02:27:59.452Z,96436.50
2022-10-14T02:30:28.803Z,96440.59
2022-10-14T02:32:58.625Z,96437.66
2022-10-14T02:35:26.553Z,96450.63
2022-10-14T02:37:55.725Z,96451.44
2022-10-14T02:40:27.728Z,96454.47
2022-10-14T02:42:55.681Z,96460.16
2022-10-14T02:45:25.951Z,96453.47
2022-10-14T02:47:53.922Z,96448.31
2022-10-14T02:50:23.465Z,96445.69
2022-10-14T02:52:51.357Z,96459.31
2022-10-14T02:55:19.260Z,96450.72
2022-10-14T02:57:47.242Z,96458.91
2022-10-14T03:00:15.941Z,96461.28
2022-10-14T03:02:44.121Z,96450.72
2022-10-14T03:05:12.116Z,96454.25
2022-10-14T03:07:41.360Z,96459.16
2022-10-14T03:10:09.943Z,96461.31
2022-10-14T03:12:37.856Z,96458.56
2022-10-14T03:15:07.239Z,96459.09
2022-10-14T03:17:35.156Z,96463.34
2022-10-14T03:20:03.242Z,96458.50
2022-10-14T03:22:31.291Z,96462.78
2022-10-14T03:25:00.709Z,96464.59
2022-10-14T03:27:28.583Z,96469.56
2022-10-14T03:29:56.460Z,96463.66
2022-10-14T03:32:24.430Z,96465.31
2022-10-14T03:34:54.553Z,96469.34
2022-10-14T03:37:22.441Z,96473.03
2022-10-14T03:39:50.405Z,96465.63
2022-10-14T03:42:20.058Z,96465.97
2022-10-14T03:44:48.259Z,96471.63
2022-10-14T03:47:16.284Z,96461.63
2022-10-14T03:49:44.474Z,96473.59
2022-10-14T03:52:12.404Z,96468.09
2022-10-14T03:54:40.290Z,96464.38
2022-10-14T03:57:08.185Z,96467.72
2022-10-14T03:59:37.535Z,96462.41
2022-10-14T04:02:05.550Z,96475.31
2022-10-14T04:04:33.489Z,96472.91
2022-10-14T04:07:01.391Z,96480.44
2022-10-14T04:09:29.289Z,96489.66
2022-10-14T04:11:58.184Z,96498.03
2022-10-14T04:14:26.564Z,96492.94
2022-10-14T04:16:55.908Z,96501.06
2022-10-14T04:19:23.951Z,96491.09
2022-10-14T04:21:51.841Z,96500.78
2022-10-14T04:24:19.737Z,96496.31
2022-10-14T04:26:47.612Z,96509.03
2022-10-14T04:29:15.515Z,96500.66
2022-10-14T04:31:43.384Z,96496.53
2022-10-14T04:34:13.048Z,96502.56
2022-10-14T04:36:40.979Z,96506.56
2022-10-14T04:39:08.918Z,96491.28
2022-10-14T04:41:36.872Z,96495.41
2022-10-14T04:44:05.493Z,96500.50
2022-10-14T04:46:33.369Z,96489.88
2022-10-14T04:49:01.272Z,96493.56
2022-10-14T04:51:30.549Z,96490.28
2022-10-14T04:53:58.547Z,96486.06
2022-10-14T04:56:26.415Z,96489.03
2022-10-14T04:58:54.322Z,96497.59
2022-10-14T05:01:22.374Z,96486.84
2022-10-14T05:03:51.322Z,96494.66
2022-10-14T05:06:19.236Z,96488.69
2022-10-14T05:08:48.503Z,96481.53
2022-10-14T05:11:16.453Z,96473.31
2022-10-14T05:13:44.356Z,96477.59
2022-10-14T05:16:12.257Z,96480.78
2022-10-14T05:18:40.164Z,96480.63
2022-10-14T05:21:08.083Z,96488.56
2022-10-14T05:23:36.023Z,96482.16
2022-10-14T05:26:05.497Z,96485.19
2022-10-14T05:28:33.706Z,96492.34
2022-10-14T05:31:01.811Z,96481.94
2022-10-14T05:33:29.698Z,96482.81
2022-10-14T05:35:59.638Z,96484.72
2022-10-14T05:38:28.109Z,96469.59
2022-10-14T05:40:57.161Z,96480.59
2022-10-14T05:43:31.827Z,96491.72
2022-10-14T05:46:00.751Z,96489.19
2022-10-14T05:48:28.640Z,96486.69
2022-10-14T05:50:56.517Z,96481.59
2022-10-14T05:53:24.675Z,96482.44
2022-10-14T05:55:52.548Z,96492.34
2022-10-14T05:58:20.409Z,96485.34
2022-10-14T06:00:49.655Z,96482.63
2022-10-14T06:03:17.832Z,96490.38
2022-10-14T06:05:46.429Z,96489.19
2022-10-14T06:08:14.335Z,96487.00
2022-10-14T06:10:42.201Z,96478.63
2022-10-14T06:13:10.161Z,96480.44
2022-10-14T06:15:38.142Z,96482.97
2022-10-14T06:18:07.485Z,96488.34
2022-10-14T06:20:35.374Z,96480.72
2022-10-14T06:23:03.665Z,96483.50
2022-10-14T06:25:31.976Z,96495.34
2022-10-14T06:28:04.353Z,96483.78
2022-10-14T06:30:32.262Z,96493.34
2022-10-14T06:33:00.131Z,96488.25
2022-10-14T06:35:29.454Z,96496.06
2022-10-14T06:37:57.329Z,96501.66
2022-10-14T06:40:25.459Z,96493.94
2022-10-14T06:42:54.161Z,96496.84
2022-10-14T06:45:22.190Z,96501.03
2022-10-14T06:47:50.234Z,96504.22
2022-10-14T06:50:18.335Z,96510.69
2022-10-14T06:52:48.068Z,96506.72
2022-10-14T06:55:16.562Z,96512.38
2022-10-14T06:57:44.719Z,96504.25
2022-10-14T07:00:13.414Z,96508.47
2022-10-14T07:02:41.443Z,96508.81
2022-10-14T07:05:10.190Z,96508.59
2022-10-14T07:07:38.141Z,96512.09
2022-10-14T07:10:08.261Z,96509.88
2022-10-14T07:12:36.156Z,96499.22
2022-10-14T07:15:05.051Z,96509.00
2022-10-14T07:17:33.279Z,96509.41
2022-10-14T07:20:01.944Z,96510.47
2022-10-14T07:22:29.857Z,96503.22
2022-10-14T07:24:57.750Z,96499.59
2022-10-14T07:27:27.044Z,96509.34
2022-10-14T07:29:55.006Z,96500.66
2022-10-14T07:32:25.455Z,96491.97
2022-10-14T07:34:53.359Z,96496.50
2022-10-14T07:37:21.465Z,96493.81
2022-10-14T07:39:49.747Z,96498.59
2022-10-14T07:42:17.747Z,96491.50
2022-10-14T07:44:47.503Z,96489.44
2022-10-14T07:47:15.491Z,96497.03
2022-10-14T07:49:43.366Z,96499.38
2022-10-14T07:52:11.285Z,96496.63
2022-10-14T07:54:39.213Z,96494.78
2022-10-14T07:57:07.121Z,96512.28
2022-10-14T07:59:35.049Z,96506.28
2022-10-14T08:02:07.595Z,96493.78
2022-10-14T08:04:35.653Z,96509.13
2022-10-14T08:07:04.751Z,96510.94
2022-10-14T08:09:33.298Z,96510.16
2022-10-14T08:12:01.192Z,96511.47
2022-10-14T08:14:29.118Z,96520.38
2022-10-14T08:16:56.995Z,96518.97
2022-10-14T08:19:26.609Z,96521.50
2022-10-14T08:21:54.514Z,96520.03
2022-10-14T08:24:23.334Z,96519.34
2022-10-14T08:26:53.366Z,96520.75
2022-10-14T08:29:22.563Z,96519.84
2022-10-14T08:31:50.516Z,96528.56
2022-10-14T08:34:21.067Z,96533.06
2022-10-14T08:36:51.085Z,96525.44
2022-10-14T08:39:19.809Z,96520.91
2022-10-14T08:42:19.450Z,96527.19
2022-10-14T08:44:51.213Z,96525.28
2022-10-14T08:47:23.747Z,96527.25
2022-10-14T08:49:58.598Z,96528.28
2022-10-14T08:52:36.476Z,96526.50
2022-10-14T08:55:15.565Z,96527.34
2022-10-14T08:57:49.509Z,96528.41
2022-10-14T09:00:18.117Z,96541.00
2022-10-14T09:02:48.272Z,96544.91
2022-10-14T09:05:17.466Z,96541.94
2022-10-14T09:07:47.757Z,96535.72
2022-10-14T09:10:20.031Z,96549.25
2022-10-14T09:12:47.991Z,96534.44
2022-10-14T09:15:20.570Z,96535.44
2022-10-14T09:17:53.052Z,96533.22
2022-10-14T09:20:22.728Z,96523.25
2022-10-14T09:23:02.351Z,96537.69
2022-10-14T09:25:30.951Z,96533.84
2022-10-14T09:27:58.916Z,96529.50
2022-10-14T09:30:26.850Z,96537.47
2022-10-14T09:32:55.656Z,96530.19
2022-10-14T09:35:26.333Z,96528.53
2022-10-14T09:37:55.724Z,96522.16
2022-10-14T09:40:30.852Z,96534.41
2022-10-14T09:43:02.770Z,96530.47
2022-10-14T09:45:32.364Z,96521.06
2022-10-14T09:48:04.154Z,96522.94
2022-10-14T09:50:34.620Z,96532.75
2022-10-14T09:53:10.667Z,96525.41
2022-10-14T09:55:40.929Z,96526.47
2022-10-14T09:58:19.076Z,96532.84
2022-10-14T10:00:47.197Z,96509.19
2022-10-14T10:03:26.306Z,96514.28
2022-10-14T10:06:01.347Z,96515.63
2022-10-14T10:08:30.714Z,96516.84
2022-10-14T10:11:05.523Z,96513.66
2022-10-14T10:13:41.431Z,96505.22
2022-10-14T10:16:19.805Z,96505.03
2022-10-14T10:18:47.912Z,96508.88
2022-10-14T10:21:19.987Z,96514.31
2022-10-14T10:23:54.894Z,96513.16
2022-10-14T10:26:26.003Z,96508.69
2022-10-14T10:28:57.551Z,96508.41
2022-10-14T10:31:53.613Z,96513.81
2022-10-14T10:34:54.274Z,96493.31
2022-10-14T10:37:28.125Z,96497.66
2022-10-14T10:40:20.187Z,96495.78
2022-10-14T10:42:58.777Z,96500.72
2022-10-14T10:45:36.842Z,96487.22
2022-10-14T10:48:09.546Z,96491.25
2022-10-14T10:50:44.051Z,96491.53
2022-10-14T10:53:42.757Z,96485.63
2022-10-14T10:56:20.830Z,96486.63
2022-10-14T10:58:59.370Z,96478.66
2022-10-14T11:01:37.223Z,96488.84
2022-10-14T11:04:23.446Z,96484.50
2022-10-14T11:07:15.879Z,96484.91
2022-10-14T11:10:09.701Z,96480.34
2022-10-14T11:12:42.047Z,96483.94
2022-10-14T11:15:26.360Z,96477.22
2022-10-14T11:18:00.231Z,96473.84
2022-10-14T11:20:37.241Z,96472.47
2022-10-14T11:23:27.992Z,96468.03
2022-10-14T11:25:58.971Z,96456.50
2022-10-14T11:28:30.830Z,96463.41
2022-10-14T11:31:04.392Z,96453.19
2022-10-14T11:33:49.093Z,96450.50
2022-10-14T11:36:23.057Z,96446.41
2022-10-14T11:39:03.953Z,96447.94
2022-10-14T11:41:41.416Z,96430.31
2022-10-14T11:44:16.993Z,96435.16
2022-10-14T11:46:49.125Z,96436.66
2022-10-14T11:49:22.096Z,96431.91
2022-10-14T11:51:52.413Z,96429.19
2022-10-14T11:54:25.249Z,96434.09
2022-10-14T11:56:57.829Z,96408.41
2022-10-14T11:59:43.875Z,96422.91
2022-10-14T12:02:22.687Z,96417.19
2022-10-14T12:04:56.411Z,96424.22
2022-10-14T12:07:28.359Z,96420.44
2022-10-14T14:41:24.520Z,96340.13
2022-10-14T14:44:13.683Z,96345.41
2022-10-14T14:46:41.841Z,96339.31
2022-10-14T14:49:15.033Z,96335.63
2022-10-14T14:51:43.279Z,96332.78
2022-10-14T14:54:17.416Z,96335.22
2022-10-14T14:56:48.453Z,96336.44
2022-10-14T14:59:24.642Z,96331.28
2022-10-14T15:01:52.649Z,96329.09
2022-10-14T15:04:22.558Z,96324.03
2022-10-14T15:06:52.041Z,96312.75
2022-10-14T15:09:25.450Z,96322.19
2022-10-14T15:11:56.090Z,96320.25
2022-10-14T15:14:33.589Z,96313.09
2022-10-14T15:17:01.504Z,96311.66
2022-10-14T15:19:39.765Z,96303.09
2022-10-14T15:22:29.620Z,96303.53
2022-10-14T15:25:23.880Z,96302.97
2022-10-14T15:27:54.875Z,96301.69
2022-10-14T15:30:31.401Z,96304.31
2022-10-14T15:33:00.521Z,96289.19
2022-10-14T15:35:29.062Z,96277.69
2022-10-14T15:37:57.086Z,96287.72
2022-10-14T15:40:29.156Z,96289.81
2022-10-14T15:42:59.004Z,96283.69
2022-10-14T15:45:27.121Z,96285.03
2022-10-14T15:50:29.379Z,96273.91
2022-10-14T15:52:57.556Z,96262.28
2022-10-14T15:55:26.827Z,96280.56
2022-10-14T15:57:55.085Z,96280.13
2022-10-14T16:00:26.084Z,96262.16
2022-10-14T16:02:55.758Z,96281.22
2022-10-14T16:05:23.677Z,96277.91
2022-10-14T16:07:51.573Z,96280.94
2022-10-14T16:10:21.357Z,96275.91
2022-10-14T16:12:49.694Z,96272.28
2022-10-14T16:15:31.767Z,96272.81
2022-10-14T16:17:59.768Z,96274.25
2022-10-14T16:20:27.679Z,96266.53
2022-10-14T16:22:55.618Z,96258.06
2022-10-14T16:25:31.009Z,96257.44
2022-10-14T16:27:59.021Z,96263.88
2022-10-14T16:30:29.052Z,96261.38
2022-10-14T16:32:57.000Z,96264.34
2022-10-14T16:35:24.944Z,96257.72
2022-10-14T16:37:53.113Z,96269.31
2022-10-14T16:40:21.027Z,96271.97
2022-10-14T16:42:49.058Z,96266.97
2022-10-14T16:45:17.103Z,96264.66
2022-10-14T16:47:46.460Z,96272.09
2022-10-14T16:50:14.740Z,96270.78
2022-10-14T16:53:03.496Z,96282.53
2022-10-14T16:55:34.093Z,96276.19
2022-10-14T16:58:01.970Z,96270.13
2022-10-14T17:00:29.901Z,96264.81
2022-10-14T17:02:59.200Z,96269.72
2022-10-14T17:05:28.628Z,96260.63
2022-10-14T17:07:56.589Z,96258.28
2022-10-14T17:10:25.243Z,96267.63
2022-10-14T17:12:54.691Z,96263.09
2022-10-14T17:15:22.608Z,96265.06
2022-10-14T17:17:50.512Z,96264.53
2022-10-14T17:20:20.349Z,96264.44
2022-10-14T17:22:49.985Z,96267.75
2022-10-14T17:25:20.066Z,96264.06
2022-10-14T17:27:47.940Z,96272.84
2022-10-14T17:30:16.806Z,96267.94
2022-10-14T17:32:44.682Z,96272.16
2022-10-14T17:35:15.137Z,96266.41
2022-10-14T17:37:45.335Z,96269.25
2022-10-14T17:40:13.617Z,96272.47
2022-10-14T17:42:41.845Z,96268.72
2022-10-14T17:45:11.068Z,96279.84
2022-10-14T17:47:38.942Z,96268.13
2022-10-14T17:50:08.955Z,96271.22
2022-10-14T17:52:36.853Z,96268.69
2022-10-14T17:55:07.216Z,96269.06
2022-10-14T17:57:35.131Z,96261.16
2022-10-14T18:00:03.232Z,96274.50
2022-10-14T18:02:31.221Z,96263.25
2022-10-14T18:04:59.170Z,96265.09
2022-10-14T18:07:27.048Z,96261.19
2022-10-14T18:09:54.974Z,96256.97
2022-10-14T18:12:24.400Z,96261.31
2022-10-14T18:14:52.302Z,96259.97
2022-10-14T18:17:20.328Z,96256.31
2022-10-14T18:19:52.156Z,96246.13
2022-10-14T18:22:20.422Z,96256.31
2022-10-14T18:24:48.337Z,96254.47
2022-10-14T18:27:16.358Z,96248.59
2022-10-14T18:29:45.652Z,96254.13
2022-10-14T18:32:13.517Z,96253.75
2022-10-14T18:34:41.416Z,96259.22
2022-10-14T18:37:09.299Z,96260.41
2022-10-14T18:39:37.296Z,96251.03
2022-10-14T18:42:05.265Z,96256.31
2022-10-14T18:44:33.169Z,96262.22
2022-10-14T18:47:02.414Z,96259.56
2022-10-14T18:49:30.656Z,96261.31
2022-10-14T18:51:58.617Z,96269.41
2022-10-14T18:54:26.539Z,96264.50
2022-10-14T18:56:54.872Z,96261.97
2022-10-14T18:59:24.121Z,96248.88
2022-10-14T19:01:53.256Z,96258.03
2022-10-14T19:04:26.813Z,96265.66
2022-10-14T19:06:54.764Z,96264.41
2022-10-14T19:09:28.914Z,96258.84
2022-10-14T19:11:58.957Z,96258.88
2022-10-14T19:14:27.187Z,96255.63
2022-10-14T19:16:55.194Z,96245.94
2022-10-14T19:19:24.509Z,96242.22
2022-10-14T19:21:54.447Z,96242.56
2022-10-14T19:24:22.523Z,96248.31
2022-10-14T19:26:50.474Z,96245.28
2022-10-14T19:29:18.451Z,96237.94
2022-10-14T19:31:46.486Z,96241.56
2022-10-14T19:34:16.180Z,96238.84
2022-10-14T19:36:46.026Z,96246.88
2022-10-14T19:39:15.709Z,96244.53
2022-10-14T19:41:44.911Z,96225.50
2022-10-14T19:44:14.037Z,96235.56
2022-10-14T19:46:42.278Z,96233.03
2022-10-14T19:49:12.268Z,96229.22
2022-10-14T19:51:40.213Z,96233.00
2022-10-14T19:54:11.566Z,96237.78
2022-10-14T19:56:39.487Z,96231.03
2022-10-14T19:59:07.450Z,96231.22
2022-10-14T20:01:35.423Z,96231.88
2022-10-14T20:04:03.452Z,96233.16
2022-10-14T20:06:33.744Z,96224.88
2022-10-14T20:09:01.706Z,96223.19
2022-10-14T20:11:31.417Z,96232.50
2022-10-14T20:13:59.336Z,96229.47
2022-10-14T20:16:27.478Z,96232.19
2022-10-14T20:18:55.795Z,96222.84
2022-10-14T20:21:23.734Z,96230.38
2022-10-14T20:23:51.789Z,96236.75
2022-10-14T20:26:21.243Z,96237.56
2022-10-14T20:28:51.267Z,96211.34
2022-10-14T20:31:20.826Z,96231.53
2022-10-14T20:33:48.974Z,96225.63
2022-10-14T20:36:18.594Z,96230.47
2022-10-14T20:38:47.249Z,96223.34
2022-10-14T20:41:17.214Z,96212.34
2022-10-14T20:43:45.557Z,96228.28
2022-10-14T20:46:14.966Z,96225.19
2022-10-14T20:48:43.039Z,96224.72
2022-10-14T20:51:12.452Z,96229.25
2022-10-14T20:56:11.052Z,96225.56
2022-10-14T20:58:39.343Z,96222.97
2022-10-14T21:01:09.044Z,96223.63
2022-10-14T21:03:38.595Z,96230.16
2022-10-14T21:06:09.017Z,96222.97
2022-10-14T21:08:37.460Z,96213.63
2022-10-14T21:11:10.500Z,96206.97
2022-10-14T21:13:42.146Z,96200.06
2022-10-14T21:16:18.137Z,96208.69
2022-10-14T21:18:53.733Z,96204.84
2022-10-14T21:21:26.900Z,96195.59
2022-10-14T21:23:54.847Z,96193.28
2022-10-14T21:26:22.782Z,96188.94
2022-10-14T21:28:50.803Z,96190.94
2022-10-14T21:31:20.021Z,96193.72
2022-10-14T21:33:49.641Z,96188.53
2022-10-14T21:36:18.051Z,96176.63
2022-10-14T21:38:46.146Z,96172.44
2022-10-14T21:41:14.185Z,96180.63
2022-10-14T21:43:42.473Z,96167.72
2022-10-14T21:46:12.013Z,96175.91
2022-10-14T21:48:39.952Z,96172.91
2022-10-14T21:51:11.388Z,96176.53
2022-10-14T21:53:39.942Z,96164.91
2022-10-14T21:56:08.220Z,96158.47
2022-10-14T21:58:36.362Z,96137.91
2022-10-14T22:01:05.928Z,96160.25
2022-10-14T22:03:34.701Z,96155.16
2022-10-14T22:08:36.280Z,96148.47
2022-10-14T22:11:04.540Z,96144.69
2022-10-14T22:13:32.685Z,96143.88
2022-10-14T22:16:00.859Z,96145.25
2022-10-14T22:18:28.824Z,96146.22
2022-10-14T22:21:01.853Z,96149.91
2022-10-14T22:23:29.837Z,96145.47
2022-10-14T22:26:01.813Z,96152.97
2022-10-14T22:28:30.796Z,96150.13
2022-10-14T22:31:04.421Z,96150.19
2022-10-14T22:33:32.347Z,96150.00
2022-10-14T22:36:06.971Z,96130.94
2022-10-14T22:38:35.350Z,96125.75
2022-10-14T22:41:05.265Z,96123.09
2022-10-14T22:43:33.281Z,96121.03
2022-10-14T22:46:01.657Z,96115.03
2022-10-14T22:48:29.908Z,96109.03
2022-10-14T22:50:57.970Z,96103.81
2022-10-14T22:53:25.933Z,96102.94
2022-10-14T22:55:53.985Z,96109.53
2022-10-14T22:58:23.253Z,96106.88
2022-10-14T23:00:51.190Z,96101.44
2022-10-14T23:03:20.309Z,96107.56
2022-10-14T23:05:48.765Z,96108.28
2022-10-14T23:08:17.691Z,96102.69
2022-10-14T23:10:45.591Z,96103.41
2022-10-14T23:13:13.470Z,96102.19
2022-10-14T23:15:42.759Z,96100.25
2022-10-14T23:18:10.658Z,96108.44
2022-10-14T23:20:38.545Z,96099.66
2022-10-14T23:23:06.411Z,96105.88
2022-10-14T23:25:34.375Z,96094.44
2022-10-14T23:28:02.243Z,96086.78
2022-10-14T23:30:30.152Z,96086.69
2022-10-14T23:32:59.391Z,96097.94
2022-10-14T23:35:27.287Z,96096.59
2022-10-14T23:37:55.144Z,96097.91
2022-10-14T23:40:23.026Z,96088.94
2022-10-14T23:42:51.033Z,96092.94
2022-10-14T23:45:19.000Z,96085.97
2022-10-14T23:47:46.892Z,96084.34
2022-10-14T23:50:16.250Z,96082.50
2022-10-14T23:52:45.826Z,96088.31
2022-10-14T23:55:13.779Z,96080.16
2022-10-14T23:57:41.733Z,96081.88
